Alamosa, Colorado
Current Conditions -  °F | °C
As of 6:52 PM on Saturday 20 Dec 2014 (Local Time) from KALS Reporting Station
Clear Clear  
Wind Chill: 15°   Ceiling: Unl
Heat Index: 21°   Visibility: 10mi
Dew Point: 15°   Wind: 5mph
Humidity: 78%   Direction: 150°SSE
Pressure: 30.04"   Gusts: NA
Location:  37.47°N, 105.87°W
Report Text: KALS 210152Z AUTO 15004KT 10SM CLR M06/M09 A3004 RMK AO2 SLP238 T10611094
Loading
Personal Weather Stations






























Interactive Weather Map New forecast layout! Learn more

10-Day Weather Forecast

Advertisements
Track Severe Weather on mobile